Time;durP1;ratioP1;P1;durP2;ratioP2;P2;SDS_P1;SDS_P2;PMS_P1;PMS_P2;Temp;Humidity;BMP_temperature;BMP_pressure;BME280_temperature;BME280_humidity;BME280_pressure;Samples;Min_cycle;Max_cycle;Signal;HPM_P1;HPM_P2
2021/11/12 00:03:38;;;;;;;78.30;50.20;;;;;;;4.56;85.05;101051.96;88069;1288;89959;-72
2021/11/12 00:13:17;;;;;;;82.40;49.50;;;;;;;4.57;85.04;101049.77;88055;1282;98030;-75
2021/11/12 00:15:28;;;;;;;76.90;50.30;;;;;;;4.61;85.06;101049.98;88107;1288;89110;-75
2021/11/12 00:17:38;;;;;;;81.30;50.20;;;;;;;4.64;84.98;101048.09;88078;1288;95362;-75
2021/11/12 00:19:52;;;;;;;78.70;48.60;;;;;;;4.65;85.03;101051.23;88075;1291;81219;-75
2021/11/12 00:22:04;;;;;;;82.60;51.00;;;;;;;4.67;85.00;101049.89;88091;1288;82076;-72
2021/11/12 00:24:13;;;;;;;79.40;50.00;;;;;;;4.65;84.91;101053.46;88077;1288;97776;-70
2021/11/12 00:26:22;;;;;;;76.90;50.70;;;;;;;4.69;85.01;101053.14;88028;1291;88345;-70
2021/11/12 00:28:37;;;;;;;82.20;50.20;;;;;;;4.71;84.98;101049.60;88109;1288;94776;-75
2021/11/12 00:30:54;;;;;;;78.20;49.90;;;;;;;4.72;84.88;101051.77;88068;1289;80428;-76
2021/11/12 00:33:20;;;;;;;79.80;49.10;;;;;;;4.73;84.92;101056.93;88090;1288;82823;-70
2021/11/12 00:35:35;;;;;;;78.80;50.10;;;;;;;4.75;84.95;101056.58;88047;1288;98244;-71
2021/11/12 00:40:17;;;;;;;84.10;50.40;;;;;;;4.79;84.92;101055.09;88051;1288;94459;-71
2021/11/12 00:42:34;;;;;;;;;;;;;;;4.79;85.04;101052.27;88071;1282;80176;-72
2021/11/12 00:44:48;;;;;;;83.60;50.20;;;;;;;4.80;85.07;101052.02;88054;1288;80775;-72
2021/11/12 00:47:01;;;;;;;92.00;51.50;;;;;;;4.79;85.03;101048.16;87919;1291;100753;-75
2021/11/12 00:49:14;;;;;;;87.40;53.00;;;;;;;4.82;85.05;101042.75;88077;1287;87809;-75
2021/11/12 00:51:27;;;;;;;85.00;50.00;;;;;;;4.82;85.08;101043.77;88064;1288;95977;-75
2021/11/12 00:53:54;;;;;;;84.30;50.40;;;;;;;4.83;85.07;101046.33;88009;1288;80957;-72
2021/11/12 00:56:04;;;;;;;87.20;49.80;;;;;;;4.84;85.10;101045.59;88054;1283;83173;-72
2021/11/12 00:58:16;;;;;;;93.70;51.50;;;;;;;4.84;85.14;101046.09;88069;1288;99035;-76
2021/11/12 01:00:39;;;;;;;88.40;50.90;;;;;;;4.84;85.15;101043.63;88090;1288;87223;-75
2021/11/12 01:03:00;;;;;;;89.40;50.30;;;;;;;4.86;85.11;101045.20;88031;1287;93070;-75
2021/11/12 01:05:18;;;;;;;92.70;50.60;;;;;;;4.88;85.14;101043.98;88047;1288;82679;-76
2021/11/12 01:07:31;;;;;;;86.40;50.50;;;;;;;4.87;85.21;101047.59;88060;1284;79835;-76
2021/11/12 01:09:44;;;;;;;89.70;49.80;;;;;;;4.86;85.26;101044.99;88075;1289;98371;-76
2021/11/12 01:12:06;;;;;;;87.30;51.10;;;;;;;4.89;85.32;101047.61;88069;1288;87820;-71
2021/11/12 01:14:29;;;;;;;90.70;50.90;;;;;;;4.92;85.30;101048.25;88027;1288;93170;-71
2021/11/12 01:16:39;;;;;;;88.20;50.00;;;;;;;4.95;85.32;101043.33;88074;1290;78982;-71
2021/11/12 01:18:53;;;;;;;94.00;53.30;;;;;;;4.96;85.21;101044.85;88095;1288;82130;-71
2021/11/12 01:21:02;;;;;;;94.70;51.10;;;;;;;4.97;85.35;101048.72;88045;1283;97066;-71
2021/11/12 01:23:12;;;;;;;89.50;49.30;;;;;;;4.98;85.31;101051.05;88090;1288;88496;-71
2021/11/12 01:25:24;;;;;;;90.20;50.60;;;;;;;4.99;85.29;101049.96;88060;1287;93735;-71
2021/11/12 01:27:37;;;;;;;97.60;50.50;;;;;;;5.01;85.36;101051.68;88049;1288;79304;-75
2021/11/12 01:29:47;;;;;;;86.80;51.80;;;;;;;5.04;85.36;101047.14;88075;1288;83232;-75
2021/11/12 01:31:58;;;;;;;86.30;49.10;;;;;;;5.05;85.34;101044.39;88078;1284;98997;-71
2021/11/12 01:34:11;;;;;;;90.90;52.80;;;;;;;5.06;85.39;101045.75;88058;1288;87758;-71
2021/11/12 01:36:28;;;;;;;;;;;;;;;5.05;85.36;101045.61;88057;1288;94920;-70
2021/11/12 01:38:40;;;;;;;89.50;51.30;;;;;;;5.06;85.41;101049.27;88070;1288;81024;-78
2021/11/12 01:40:50;;;;;;;89.40;51.30;;;;;;;5.05;85.40;101047.90;88100;1283;80835;-78
2021/11/12 01:43:11;;;;;;;88.90;51.30;;;;;;;5.02;85.53;101039.09;88110;1287;99188;-77
2021/11/12 01:45:31;;;;;;;89.30;49.80;;;;;;;5.02;85.47;101038.72;88056;1288;88401;-77
2021/11/12 01:47:45;;;;;;;91.70;51.20;;;;;;;5.04;85.57;101037.67;88117;1288;94750;-77
2021/11/12 01:49:54;;;;;;;;;;;;;;;5.05;85.47;101039.17;88106;1285;79242;-77
2021/11/12 01:52:12;;;;;;;84.90;48.70;;;;;;;5.05;85.41;101038.08;88060;1288;81751;-71
2021/11/12 01:57:20;;;;;;;87.30;49.50;;;;;;;5.08;85.52;101045.52;88117;1287;87800;-72
2021/11/12 01:59:33;;;;;;;87.50;51.30;;;;;;;5.09;85.47;101049.91;88062;1288;95498;-73
2021/11/12 02:01:50;;;;;;;90.30;50.70;;;;;;;5.13;85.52;101047.55;88069;1287;83961;-71
2021/11/12 02:04:00;;;;;;;83.90;49.30;;;;;;;5.15;85.50;101051.98;88053;1287;82280;-71
2021/11/12 02:06:15;;;;;;;91.50;51.70;;;;;;;5.16;85.50;101053.38;88076;1287;97229;-70
2021/11/12 02:08:27;;;;;;;86.30;50.00;;;;;;;5.16;85.60;101063.20;88102;1287;87302;-70
2021/11/12 02:10:41;;;;;;;88.40;51.50;;;;;;;5.09;85.57;101063.05;88050;1288;95535;-70
2021/11/12 02:12:56;;;;;;;;;;;;;;;5.07;85.51;101066.80;88066;1285;80813;-70
2021/11/12 02:15:06;;;;;;;92.70;50.00;;;;;;;5.12;85.66;101064.76;88082;1288;80287;-71
2021/11/12 02:17:21;;;;;;;81.90;48.40;;;;;;;5.14;85.58;101061.60;88046;1288;98373;-76
2021/11/12 02:19:33;;;;;;;85.80;49.40;;;;;;;5.18;85.62;101061.58;88086;1283;86650;-77
2021/11/12 02:21:50;;;;;;;85.80;49.70;;;;;;;5.18;85.56;101060.82;88105;1288;94537;-77
2021/11/12 02:24:03;;;;;;;86.90;49.60;;;;;;;5.21;85.64;101064.32;88100;1283;81281;-77
2021/11/12 02:26:19;;;;;;;89.30;50.10;;;;;;;5.23;85.75;101069.45;88069;1287;81707;-76
2021/11/12 02:28:30;;;;;;;86.40;50.10;;;;;;;5.22;85.61;101068.16;88100;1287;99627;-76
2021/11/12 02:30:41;;;;;;;82.30;49.90;;;;;;;5.20;85.65;101069.98;88098;1285;89822;-76
2021/11/12 02:33:05;;;;;;;87.50;50.20;;;;;;;5.21;85.65;101065.53;88109;1285;94320;-69
2021/11/12 02:35:15;;;;;;;85.00;48.60;;;;;;;5.21;85.68;101068.23;88055;1285;82411;-70
2021/11/12 02:37:28;;;;;;;81.00;47.00;;;;;;;5.20;85.77;101069.59;88161;1284;82210;-76
2021/11/12 02:39:39;;;;;;;78.90;48.20;;;;;;;5.25;85.69;101064.50;88161;1285;99629;-76
2021/11/12 02:41:52;;;;;;;80.00;49.70;;;;;;;5.29;85.73;101061.97;88114;1284;88449;-76
2021/11/12 02:44:03;;;;;;;81.00;47.30;;;;;;;5.31;85.76;101065.16;88100;1284;94864;-77
2021/11/12 02:46:20;;;;;;;79.60;48.80;;;;;;;5.36;85.72;101062.27;88157;1280;81619;-78
2021/11/12 02:48:36;;;;;;;78.30;47.10;;;;;;;5.36;85.75;101065.58;88116;1284;81763;-77
2021/11/12 02:50:47;;;;;;;77.70;46.60;;;;;;;5.37;85.81;101065.19;88158;1287;97974;-77
2021/11/12 02:53:01;;;;;;;81.00;48.30;;;;;;;5.38;85.79;101059.94;88081;1289;87052;-77
2021/11/12 02:55:12;;;;;;;83.90;49.90;;;;;;;5.38;85.78;101060.19;88099;1285;93076;-77
2021/11/12 02:57:33;;;;;;;83.00;50.00;;;;;;;5.40;85.82;101061.55;88144;1284;81026;-69
2021/11/12 02:59:46;;;;;;;87.30;49.40;;;;;;;5.40;85.73;101059.20;88071;1285;80671;-70
2021/11/12 03:02:04;;;;;;;82.30;47.80;;;;;;;5.41;85.85;101066.23;88109;1285;99014;-70
2021/11/12 03:04:16;;;;;;;78.40;47.80;;;;;;;5.40;85.86;101062.08;88113;1284;88330;-69
2021/11/12 03:06:30;;;;;;;82.30;48.10;;;;;;;5.41;85.80;101060.56;88083;1284;93749;-70
2021/11/12 03:08:43;;;;;;;81.60;46.80;;;;;;;5.41;85.82;101062.17;88097;1285;81646;-69
2021/11/12 03:10:55;;;;;;;76.60;48.10;;;;;;;5.41;85.99;101064.48;88100;1284;83318;-69
2021/11/12 03:13:06;;;;;;;78.40;47.70;;;;;;;5.41;85.82;101067.66;88082;1285;99078;-79
2021/11/12 03:15:18;;;;;;;80.80;48.10;;;;;;;5.42;85.85;101075.80;88100;1284;88731;-77
2021/11/12 03:17:29;;;;;;;80.80;47.30;;;;;;;5.41;85.78;101073.42;88091;1284;94661;-77
2021/11/12 03:19:41;;;;;;;78.40;47.40;;;;;;;5.43;85.92;101077.01;88083;1284;82788;-78
2021/11/12 03:21:54;;;;;;;82.80;47.80;;;;;;;5.46;85.83;101072.98;88103;1285;80491;-69
2021/11/12 03:24:10;;;;;;;80.50;46.40;;;;;;;5.48;85.91;101069.52;88040;1282;99882;-70
2021/11/12 03:26:33;;;;;;;76.60;46.10;;;;;;;5.53;85.91;101071.26;88084;1284;87728;-71
2021/11/12 03:28:59;;;;;;;78.30;47.50;;;;;;;5.52;85.91;101073.10;88058;1285;95396;-70
2021/11/12 03:46:49;;;;;;;77.30;47.50;;;;;;;5.52;85.92;101076.52;88071;1283;79202;-71
2021/11/12 03:56:34;;;;;;;80.20;47.70;;;;;;;5.56;85.99;101081.47;88038;1287;83740;-71
2021/11/12 04:03:45;;;;;;;79.50;45.00;;;;;;;5.62;86.06;101078.40;88071;1281;88482;-72
2021/11/12 04:06:18;;;;;;;85.70;48.40;;;;;;;5.64;86.03;101085.04;88052;1285;96079;-71
2021/11/12 04:18:27;;;;;;;79.10;46.30;;;;;;;5.68;86.15;101096.73;88081;1284;95699;-70
2021/11/12 04:20:51;;;;;;;79.30;46.00;;;;;;;5.68;86.26;101096.08;85834;1285;3013377;-71
2021/11/12 05:10:38;;;;;;;79.50;44.30;;;;;;;5.92;86.51;101104.55;88067;1288;82106;-71
2021/11/12 05:13:00;;;;;;;81.80;44.30;;;;;;;5.94;86.60;101100.96;88041;1287;81252;-71
2021/11/12 05:45:21;;;;;;;77.50;41.80;;;;;;;6.16;86.76;101120.88;87618;1291;93781;-78
2021/11/12 05:50:06;;;;;;;83.70;43.90;;;;;;;6.21;86.74;101124.54;88055;1284;79998;-71
2021/11/12 05:55:03;;;;;;;86.50;44.80;;;;;;;6.21;86.60;101124.92;88064;1286;98205;-78
2021/11/12 05:55:06;;;;;;;88.00;46.50;;;;;;;6.19;86.74;101131.02;88043;1288;87221;-76
2021/11/12 05:57:19;;;;;;;85.90;43.60;;;;;;;6.19;86.74;101129.42;87945;1288;96016;-77
2021/11/12 05:59:29;;;;;;;84.90;44.70;;;;;;;6.20;86.73;101133.43;87970;1288;79798;-77
2021/11/12 06:01:41;;;;;;;80.20;44.30;;;;;;;6.21;86.69;101140.05;87972;1286;81235;-77
2021/11/12 06:03:55;;;;;;;84.70;44.80;;;;;;;6.22;86.74;101141.08;88018;1288;96737;-71
2021/11/12 06:06:04;;;;;;;91.90;46.60;;;;;;;6.21;86.68;101141.19;88023;1284;86150;-70
2021/11/12 06:08:14;;;;;;;89.90;45.60;;;;;;;6.21;86.72;101144.55;87927;1290;93267;-70
2021/11/12 06:10:27;;;;;;;91.50;46.20;;;;;;;6.21;86.77;101153.34;88020;1285;80666;-71
2021/11/12 06:12:38;;;;;;;83.70;42.70;;;;;;;6.24;86.69;101152.83;88014;1288;81513;-71
2021/11/12 06:14:47;;;;;;;88.00;46.10;;;;;;;6.23;86.72;101148.65;88002;1287;97985;-71
2021/11/12 06:16:58;;;;;;;82.50;44.70;;;;;;;6.26;86.69;101148.79;88050;1288;89289;-71
2021/11/12 06:19:07;;;;;;;88.50;45.10;;;;;;;6.27;86.75;101152.38;88017;1283;92419;-71
2021/11/12 06:21:19;;;;;;;89.60;45.30;;;;;;;6.29;86.82;101157.23;87923;1288;82871;-70
2021/11/12 06:23:29;;;;;;;84.20;43.80;;;;;;;6.29;86.84;101159.15;87941;1294;82562;-71
2021/11/12 06:25:38;;;;;;;90.20;46.20;;;;;;;6.29;86.79;101156.19;87935;1291;96878;-70
2021/11/12 06:27:50;;;;;;;83.60;42.90;;;;;;;6.32;86.86;101158.02;87983;1287;88340;-70
2021/11/12 06:30:00;;;;;;;87.10;43.00;;;;;;;6.36;86.69;101159.80;87916;1285;95641;-71
2021/11/12 06:32:10;;;;;;;84.30;44.40;;;;;;;6.38;86.78;101158.29;87977;1288;82854;-76
2021/11/12 06:34:20;;;;;;;88.20;44.50;;;;;;;6.41;86.92;101157.35;87878;1291;79772;-75
2021/11/12 06:36:30;;;;;;;88.80;43.80;;;;;;;6.44;86.87;101159.58;87865;1286;98260;-75
2021/11/12 06:38:42;;;;;;;90.20;45.30;;;;;;;6.45;86.84;101166.82;87978;1285;85906;-70
2021/11/12 06:40:51;;;;;;;90.30;44.20;;;;;;;6.46;86.92;101168.48;87959;1287;94092;-69
2021/11/12 06:43:05;;;;;;;85.00;42.10;;;;;;;6.50;86.90;101170.27;87941;1291;79171;-71
2021/11/12 06:49:59;;;;;;;88.40;43.40;;;;;;;6.54;86.89;101177.19;87958;1287;88726;-71
2021/11/12 06:52:09;;;;;;;88.60;44.20;;;;;;;6.55;86.84;101177.86;87954;1291;94745;-70
2021/11/12 06:54:21;;;;;;;85.20;43.30;;;;;;;6.53;86.82;101181.73;87949;1290;82577;-71
2021/11/12 06:56:31;;;;;;;85.80;44.70;;;;;;;6.54;86.91;101187.38;87969;1287;81018;-70
2021/11/12 06:58:40;;;;;;;86.40;43.80;;;;;;;6.56;86.81;101180.96;87936;1286;98335;-71
2021/11/12 07:00:50;;;;;;;90.10;45.00;;;;;;;6.56;86.82;101176.34;87926;1290;88518;-71
2021/11/12 07:02:59;;;;;;;85.10;42.80;;;;;;;6.61;86.87;101175.36;87925;1291;94768;-71
2021/11/12 07:05:13;;;;;;;90.50;45.10;;;;;;;6.64;86.77;101176.42;87937;1288;82144;-71
2021/11/12 07:07:21;;;;;;;;;;;;;;;6.65;86.85;101177.21;88017;1288;83203;-79
2021/11/12 07:09:32;;;;;;;87.60;44.80;;;;;;;6.66;86.84;101179.16;88003;1290;96467;-77
2021/11/12 07:11:46;;;;;;;88.50;45.60;;;;;;;6.68;86.72;101183.09;88006;1288;88126;-78
2021/11/12 07:13:58;;;;;;;87.20;44.40;;;;;;;6.70;86.76;101182.13;87911;1288;93564;-71
2021/11/12 07:16:08;;;;;;;89.90;45.30;;;;;;;6.75;86.77;101182.35;87959;1287;81977;-71
2021/11/12 07:18:18;;;;;;;85.50;42.30;;;;;;;6.80;86.82;101184.81;87946;1290;81707;-71
2021/11/12 07:20:28;;;;;;;88.30;46.60;;;;;;;6.82;86.80;101179.73;87927;1286;98682;-71
2021/11/12 07:22:42;;;;;;;88.30;45.50;;;;;;;6.82;86.76;101180.08;87939;1286;88780;-71
2021/11/12 07:24:53;;;;;;;84.10;43.60;;;;;;;6.85;86.72;101183.18;87990;1285;94513;-71
2021/11/12 07:27:02;;;;;;;87.40;44.60;;;;;;;6.85;86.75;101182.88;87945;1292;80119;-72
2021/11/12 07:29:13;;;;;;;84.20;44.20;;;;;;;6.86;86.81;101187.05;87971;1287;81999;-71
2021/11/12 07:31:26;;;;;;;96.60;46.80;;;;;;;6.86;86.82;101185.75;87924;1285;97205;-71
2021/11/12 07:33:38;;;;;;;89.00;44.80;;;;;;;6.90;86.75;101182.91;88031;1288;89028;-78
2021/11/12 07:35:53;;;;;;;85.50;44.60;;;;;;;6.95;86.70;101183.35;88006;1285;94286;-77
2021/11/12 07:38:10;;;;;;;88.20;46.80;;;;;;;6.97;86.75;101188.63;87921;1290;79941;-71
2021/11/12 07:40:24;;;;;;;82.80;43.30;;;;;;;7.03;86.76;101191.15;87858;1287;84091;-72
2021/11/12 07:42:40;;;;;;;89.80;45.70;;;;;;;7.08;86.76;101190.29;87967;1286;97133;-70
2021/11/12 07:45:01;;;;;;;89.70;44.50;;;;;;;7.09;86.69;101192.88;87962;1287;87059;-71
2021/11/12 07:47:15;;;;;;;92.70;45.90;;;;;;;7.09;86.68;101191.08;87873;1289;94126;-71
2021/11/12 07:49:25;;;;;;;90.70;44.40;;;;;;;7.12;86.68;101190.06;87954;1288;82693;-71
2021/11/12 07:51:38;;;;;;;81.70;43.20;;;;;;;7.17;86.63;101189.42;87983;1285;82679;-71
2021/11/12 07:53:48;;;;;;;87.10;43.90;;;;;;;7.17;86.65;101190.16;87924;1291;98127;-71
2021/11/12 07:56:00;;;;;;;86.90;45.30;;;;;;;7.20;86.55;101190.96;87981;1284;88322;-70
2021/11/12 07:58:13;;;;;;;85.90;42.80;;;;;;;7.20;86.57;101191.21;87909;1291;95792;-71
2021/11/12 08:00:26;;;;;;;85.30;42.90;;;;;;;7.20;86.61;101188.25;87897;1290;82005;-71
2021/11/12 08:02:35;;;;;;;88.40;43.90;;;;;;;7.21;86.48;101190.06;87964;1285;83442;-71
2021/11/12 08:04:55;;;;;;;86.60;44.00;;;;;;;7.22;86.57;101189.08;88001;1287;97250;-71
2021/11/12 08:07:05;;;;;;;87.40;42.30;;;;;;;7.25;86.58;101190.40;87928;1285;88124;-71
2021/11/12 08:09:19;;;;;;;85.60;44.90;;;;;;;7.31;86.63;101190.89;87892;1290;95253;-71
2021/11/12 08:11:35;;;;;;;74.60;42.10;;;;;;;7.37;86.56;101194.98;87921;1291;80591;-71
2021/11/12 08:13:51;;;;;;;82.00;41.20;;;;;;;7.38;86.56;101192.13;87693;1289;82646;-77
2021/11/12 08:16:21;;;;;;;87.20;42.60;;;;;;;7.41;86.46;101188.27;87984;1287;97789;-76
2021/11/12 08:18:44;;;;;;;80.50;42.30;;;;;;;7.51;86.61;101191.05;87969;1288;87474;-76
2021/11/12 08:20:59;;;;;;;77.30;40.90;;;;;;;7.57;86.58;101186.35;87931;1288;94685;-76
2021/11/12 08:23:19;;;;;;;89.50;42.40;;;;;;;7.62;86.52;101186.55;88009;1287;81106;-76
2021/11/12 08:25:40;;;;;;;86.40;43.60;;;;;;;7.68;86.46;101179.09;87937;1288;80719;-78
2021/11/12 08:30:32;;;;;;;83.00;43.50;;;;;;;7.84;86.65;101183.15;87991;1287;88654;-78
2021/11/12 08:32:53;;;;;;;83.90;41.80;;;;;;;7.90;86.63;101184.33;87719;1290;93950;-78
2021/11/12 08:35:10;;;;;;;81.10;41.30;;;;;;;8.02;86.55;101183.81;87975;1291;78803;-78
2021/11/12 08:37:30;;;;;;;83.40;43.40;;;;;;;8.09;86.58;101188.08;87988;1283;81767;-78
2021/11/12 08:39:51;;;;;;;82.90;44.20;;;;;;;8.19;86.47;101185.11;87928;1290;99471;-78
2021/11/12 08:42:05;;;;;;;79.70;43.60;;;;;;;8.24;86.55;101185.12;88007;1284;87773;-76
2021/11/12 08:44:22;;;;;;;83.40;41.90;;;;;;;8.30;86.41;101187.75;87957;1285;93858;-77
2021/11/12 08:46:38;;;;;;;81.70;40.40;;;;;;;8.32;86.39;101188.51;88016;1288;80051;-76
2021/11/12 08:48:58;;;;;;;81.20;42.20;;;;;;;8.36;86.33;101188.98;87967;1287;79750;-73
2021/11/12 08:51:14;;;;;;;81.80;41.90;;;;;;;8.47;86.27;101189.85;87896;1287;99198;-72
2021/11/12 08:53:23;;;;;;;76.30;42.10;;;;;;;8.55;86.23;101184.83;88003;1288;87784;-78
2021/11/12 08:55:34;;;;;;;79.20;43.20;;;;;;;8.59;86.07;101184.96;88031;1294;96309;-75
2021/11/12 08:57:47;;;;;;;79.90;42.00;;;;;;;8.62;86.11;101191.48;87948;1290;79339;-73
2021/11/12 08:59:56;;;;;;;78.80;43.30;;;;;;;8.63;86.06;101198.73;87957;1290;80128;-71
2021/11/12 09:02:07;;;;;;;78.80;41.00;;;;;;;8.64;85.95;101197.73;88018;1286;96234;-75
2021/11/12 09:04:20;;;;;;;85.00;43.40;;;;;;;8.65;85.85;101196.17;87915;1291;89732;-75
2021/11/12 09:06:30;;;;;;;77.70;43.30;;;;;;;8.69;85.82;101191.58;87912;1291;95004;-75
2021/11/12 09:08:40;;;;;;;78.00;42.70;;;;;;;8.73;85.75;101191.94;87966;1287;81538;-71
2021/11/12 09:10:52;;;;;;;79.10;43.40;;;;;;;8.77;85.80;101193.30;87926;1290;80208;-71
2021/11/12 09:13:11;;;;;;;78.60;43.00;;;;;;;8.80;85.81;101195.72;87956;1287;98331;-71
2021/11/12 09:15:25;;;;;;;80.80;41.70;;;;;;;8.83;85.66;101199.71;88000;1284;89201;-71
2021/11/12 09:17:35;;;;;;;75.40;41.40;;;;;;;8.84;85.72;101198.48;87941;1290;94564;-74
2021/11/12 09:19:49;;;;;;;83.90;45.10;;;;;;;8.92;85.57;101191.02;87935;1289;78607;-74
2021/11/12 09:21:58;;;;;;;80.10;44.30;;;;;;;9.03;85.42;101194.77;88019;1288;82648;-76
2021/11/12 09:24:08;;;;;;;79.30;41.70;;;;;;;9.05;85.48;101193.61;87949;1290;97620;-74
2021/11/12 09:26:20;;;;;;;79.70;42.30;;;;;;;9.05;85.47;101194.88;87989;1287;87585;-74
2021/11/12 09:28:32;;;;;;;72.60;40.80;;;;;;;9.11;85.32;101194.61;87933;1294;93861;-70
2021/11/12 09:30:45;;;;;;;65.30;37.80;;;;;;;9.22;85.32;101191.86;87963;1287;82040;-71
2021/11/12 09:32:56;;;;;;;61.20;35.40;;;;;;;9.35;85.34;101185.23;87973;1288;81750;-74
2021/11/12 09:35:11;;;;;;;65.20;36.50;;;;;;;9.44;85.23;101185.84;87933;1285;99188;-75
2021/11/12 09:37:22;;;;;;;66.50;38.80;;;;;;;9.56;85.21;101186.08;87970;1290;89099;-76
2021/11/12 09:39:36;;;;;;;65.80;38.20;;;;;;;9.64;85.07;101188.05;87831;1290;95769;-75
2021/11/12 09:41:48;;;;;;;65.40;37.50;;;;;;;9.74;84.95;101181.89;87954;1285;79943;-72
2021/11/12 09:44:02;;;;;;;60.90;36.00;;;;;;;9.81;84.82;101187.80;87991;1278;80158;-73
2021/11/12 09:46:16;;;;;;;68.30;38.10;;;;;;;9.81;84.87;101184.34;88022;1288;96587;-75
2021/11/12 09:48:25;;;;;;;71.20;39.60;;;;;;;9.86;84.82;101186.34;87951;1290;86677;-72
2021/11/12 09:50:39;;;;;;;69.40;39.30;;;;;;;9.86;84.54;101188.50;87989;1287;95105;-72
2021/11/12 09:52:49;;;;;;;69.10;40.10;;;;;;;9.85;84.46;101186.06;87904;1285;80093;-71
2021/11/12 09:54:58;;;;;;;67.40;38.20;;;;;;;9.81;84.40;101183.69;87921;1285;82865;-70
2021/11/12 09:57:11;;;;;;;64.50;38.70;;;;;;;9.80;84.26;101181.07;88005;1285;97820;-76
2021/11/12 09:59:23;;;;;;;65.70;39.30;;;;;;;9.80;84.16;101176.40;87928;1289;88132;-70
2021/11/12 10:01:40;;;;;;;66.70;40.50;;;;;;;9.81;84.23;101179.64;87883;1291;95164;-68
2021/11/12 10:03:51;;;;;;;71.10;41.60;;;;;;;9.82;83.98;101181.91;87993;1279;79071;-68
2021/11/12 10:06:17;;;;;;;73.50;40.70;;;;;;;9.78;83.87;101184.73;88000;1288;82070;-70
2021/11/12 10:08:33;;;;;;;70.70;40.80;;;;;;;9.73;83.93;101187.92;87922;1279;96272;-71
2021/11/12 10:10:52;;;;;;;69.60;38.20;;;;;;;9.67;83.86;101189.45;88006;1285;88543;-71
2021/11/12 10:13:03;;;;;;;71.50;39.80;;;;;;;9.66;83.68;101186.92;87938;1291;94571;-70
2021/11/12 10:15:20;;;;;;;69.90;40.50;;;;;;;9.59;83.67;101183.30;87935;1285;78550;-66
2021/11/12 10:18:11;;;;;;;73.40;42.70;;;;;;;9.54;83.67;101183.75;87937;1285;82274;-74
2021/11/12 10:20:49;;;;;;;71.60;40.60;;;;;;;9.45;83.52;101183.55;87979;1291;98522;-73
2021/11/12 10:23:30;;;;;;;74.90;41.40;;;;;;;9.30;83.49;101184.44;87745;1284;86915;-72
2021/11/12 10:25:52;;;;;;;75.00;40.60;;;;;;;9.23;83.44;101187.02;87962;1288;93695;-73
2021/11/12 10:28:02;;;;;;;75.90;41.00;;;;;;;9.15;83.52;101189.48;87893;1290;79866;-65
2021/11/12 10:30:19;;;;;;;76.50;41.50;;;;;;;9.11;83.54;101188.02;87941;1291;81675;-64
2021/11/12 10:32:32;;;;;;;75.40;41.70;;;;;;;9.11;83.71;101189.63;87991;1286;96885;-74
2021/11/12 10:34:47;;;;;;;;;;;;;;;9.10;83.84;101190.27;87929;1290;88657;-75
2021/11/12 10:37:08;;;;;;;74.60;41.60;;;;;;;9.07;83.81;101192.34;87961;1287;94833;-75
2021/11/12 10:39:25;;;;;;;83.50;44.30;;;;;;;9.07;83.98;101186.98;87993;1287;79392;-75
2021/11/12 10:41:42;;;;;;;78.00;44.50;;;;;;;9.13;83.92;101176.13;87996;1287;83430;-74
2021/11/12 10:43:54;;;;;;;76.40;42.00;;;;;;;9.15;83.94;101172.94;87911;1290;99340;-65
2021/11/12 10:46:10;;;;;;;81.10;44.80;;;;;;;9.20;83.82;101168.48;87896;1285;87560;-65
2021/11/12 10:48:31;;;;;;;87.40;43.80;;;;;;;9.22;83.88;101167.73;87970;1287;94235;-75
2021/11/12 10:50:45;;;;;;;78.90;42.60;;;;;;;9.32;83.93;101167.92;87964;1291;81421;-73
2021/11/12 10:53:02;;;;;;;77.50;43.60;;;;;;;9.38;83.99;101168.70;87834;1291;79914;-71
2021/11/12 10:55:17;;;;;;;71.70;41.40;;;;;;;9.45;84.05;101169.92;87919;1286;96842;-74
2021/11/12 10:57:34;;;;;;;77.70;43.50;;;;;;;9.47;83.85;101169.73;87972;1287;85852;-62
2021/11/12 11:00:14;;;;;;;70.90;42.40;;;;;;;9.47;83.75;101172.95;87935;1284;93219;-74
2021/11/12 11:02:32;;;;;;;79.70;44.30;;;;;;;9.39;83.65;101162.13;87964;1288;78433;-72
2021/11/12 11:04:47;;;;;;;75.00;44.10;;;;;;;9.38;83.77;101164.88;87971;1288;82178;-72
2021/11/12 11:07:17;;;;;;;77.90;44.20;;;;;;;9.42;83.77;101160.33;87961;1288;99293;-74
2021/11/12 11:09:39;;;;;;;79.60;42.80;;;;;;;9.43;83.66;101163.67;88005;1288;86510;-71
2021/11/12 11:11:52;;;;;;;76.50;42.20;;;;;;;9.29;83.49;101168.77;87931;1291;94642;-71
2021/11/12 11:14:02;;;;;;;75.00;42.60;;;;;;;9.16;83.50;101169.44;87930;1291;80196;-71
2021/11/12 11:16:18;;;;;;;75.60;42.10;;;;;;;9.10;83.52;101163.04;87963;1287;82535;-72
2021/11/12 11:18:32;;;;;;;76.20;41.70;;;;;;;9.13;83.62;101151.46;87970;1287;98380;-72
2021/11/12 11:20:45;;;;;;;74.20;42.20;;;;;;;9.14;83.66;101148.98;87715;1286;86477;-74
2021/11/12 11:23:00;;;;;;;70.30;41.20;;;;;;;9.18;83.79;101149.33;87963;1287;94488;-74
2021/11/12 11:25:13;;;;;;;75.00;42.80;;;;;;;9.22;83.85;101147.23;87923;1292;80885;-75
2021/11/12 11:27:22;;;;;;;79.70;43.70;;;;;;;9.21;83.80;101141.62;87954;1290;81506;-71
2021/11/12 11:29:33;;;;;;;80.70;45.10;;;;;;;9.30;83.73;101145.79;87994;1288;98981;-75
2021/11/12 11:31:44;;;;;;;76.90;44.40;;;;;;;9.37;83.81;101138.19;87920;1290;87113;-73
2021/11/12 11:33:58;;;;;;;76.70;44.70;;;;;;;9.48;83.69;101138.36;87943;1287;94967;-66
2021/11/12 11:36:16;;;;;;;76.00;42.10;;;;;;;9.56;83.52;101136.58;87963;1282;81008;-73
2021/11/12 11:38:33;;;;;;;76.40;43.70;;;;;;;9.53;83.70;101138.71;87965;1287;79840;-74
2021/11/12 11:40:49;;;;;;;75.20;43.80;;;;;;;9.52;83.54;101135.56;87694;1290;101357;-73
2021/11/12 11:42:59;;;;;;;77.50;45.00;;;;;;;9.60;83.59;101133.77;87919;1286;88434;-74
2021/11/12 11:45:14;;;;;;;80.50;45.10;;;;;;;9.64;83.45;101135.39;88007;1288;94199;-73
2021/11/12 11:47:24;;;;;;;79.10;45.10;;;;;;;9.66;83.49;101132.94;88002;1287;76729;-71
2021/11/12 11:49:39;;;;;;;79.10;43.50;;;;;;;9.56;83.48;101134.45;87912;1286;80046;-71
2021/11/12 11:51:57;;;;;;;78.80;43.20;;;;;;;9.55;83.25;101136.69;88017;1287;97754;-72
2021/11/12 11:54:10;;;;;;;80.80;44.50;;;;;;;9.55;83.11;101134.70;87989;1287;86532;-73
2021/11/12 11:56:28;;;;;;;87.30;45.40;;;;;;;9.48;83.15;101133.61;87969;1287;95568;-74
2021/11/12 11:58:59;;;;;;;80.00;42.90;;;;;;;9.51;83.25;101131.72;87989;1287;82732;-73
2021/11/12 12:01:35;;;;;;;80.20;43.90;;;;;;;9.53;83.26;101129.30;88095;1288;82149;-75
2021/11/12 12:03:50;;;;;;;79.30;44.10;;;;;;;9.59;83.14;101131.05;88062;1287;99003;-74
2021/11/12 12:06:11;;;;;;;80.10;44.70;;;;;;;9.61;83.29;101124.90;88104;1287;88906;-73
2021/11/12 12:08:34;;;;;;;81.00;44.70;;;;;;;9.67;83.18;101128.38;87935;1291;96813;-73
2021/11/12 12:10:46;;;;;;;80.90;41.80;;;;;;;9.64;83.10;101122.34;88066;1287;81340;-74
2021/11/12 12:13:05;;;;;;;83.40;45.30;;;;;;;9.58;83.18;101119.83;88032;1285;82994;-72
2021/11/12 12:15:41;;;;;;;88.10;47.30;;;;;;;9.60;82.99;101124.48;88049;1284;98376;-72
2021/11/12 12:18:07;;;;;;;78.10;45.60;;;;;;;9.58;82.96;101125.77;88032;1287;89350;-74
2021/11/12 12:20:30;;;;;;;83.60;45.30;;;;;;;9.55;83.07;101120.67;88069;1283;95873;-79
2021/11/12 13:21:53;;;;;;;68.50;39.40;;;;;;;9.21;83.06;101093.73;88026;1285;98233;-72
2021/11/12 13:24:16;;;;;;;71.70;39.50;;;;;;;9.24;82.94;101097.09;88062;1287;86873;-73
2021/11/12 13:26:25;;;;;;;63.70;37.80;;;;;;;9.21;82.93;101096.65;88053;1287;93154;-71
2021/11/12 13:28:37;;;;;;;68.40;37.90;;;;;;;9.24;83.02;101097.80;88043;1278;80768;-71
2021/11/12 13:30:53;;;;;;;57.00;36.10;;;;;;;9.24;82.94;101098.14;88061;1287;83215;-71
2021/11/12 13:33:02;;;;;;;55.30;36.70;;;;;;;9.17;83.03;101101.98;88053;1287;97553;-72
2021/11/12 13:35:12;;;;;;;63.70;38.70;;;;;;;9.18;83.05;101100.80;88010;1287;88974;-72
2021/11/12 13:37:28;;;;;;;57.80;36.30;;;;;;;9.13;82.98;101102.00;88058;1283;94149;-74
2021/11/12 13:39:42;;;;;;;56.60;35.20;;;;;;;9.13;83.03;101100.83;88073;1287;80992;-74
2021/11/12 13:42:04;;;;;;;62.00;37.20;;;;;;;9.08;83.02;101102.94;88011;1287;82333;-72